Time;durP1;ratioP1;P1;durP2;ratioP2;P2;SDS_P1;SDS_P2;PMS_P1;PMS_P2;Temp;Humidity;BMP_temperature;BMP_pressure;BME280_temperature;BME280_humidity;BME280_pressure;Samples;Min_cycle;Max_cycle;Signal;HPM_P1;HPM_P2
2024/02/22 00:01:01;;;;;;;1999.90;999.90;;;;;;;;;;6185200;23;20017;-82
2024/02/22 00:03:29;;;;;;;1999.90;999.90;;;;;;;;;;6185441;23;20356;-83
2024/02/22 00:05:56;;;;;;;1999.90;999.90;;;;;;;;;;6185455;23;20017;-85
2024/02/22 00:08:22;;;;;;;1999.90;999.90;;;;;;;;;;6185300;23;20027;-82
2024/02/22 00:10:49;;;;;;;1999.90;999.90;;;;;;;;;;6185025;23;20029;-85
2024/02/22 00:13:16;;;;;;;1999.90;999.90;;;;;;;;;;6184989;23;20486;-84
2024/02/22 00:15:42;;;;;;;1999.90;999.90;;;;;;;;;;6184866;23;20023;-83
2024/02/22 00:18:09;;;;;;;1999.90;999.90;;;;;;;;;;6185155;23;20039;-84
2024/02/22 00:20:37;;;;;;;1999.90;999.90;;;;;;;;;;6185250;23;20335;-83
2024/02/22 00:23:18;;;;;;;1999.90;999.90;;;;;;;;;;6184757;23;20021;-84
2024/02/22 00:25:45;;;;;;;1999.90;999.90;;;;;;;;;;6185185;23;20048;-84
2024/02/22 00:28:11;;;;;;;1999.90;999.90;;;;;;;;;;6184980;23;20028;-82
2024/02/22 00:30:38;;;;;;;1999.90;999.90;;;;;;;;;;6184628;23;20025;-83
2024/02/22 00:33:05;;;;;;;1999.90;999.90;;;;;;;;;;6184670;23;20021;-83
2024/02/22 00:35:31;;;;;;;1999.90;999.90;;;;;;;;;;6184804;23;20020;-83
2024/02/22 00:37:59;;;;;;;1999.90;999.90;;;;;;;;;;6184746;23;20449;-82
2024/02/22 00:40:26;;;;;;;1999.90;999.90;;;;;;;;;;6184626;23;20021;-82
2024/02/22 00:42:53;;;;;;;1999.90;999.90;;;;;;;;;;6185061;23;20063;-83
2024/02/22 00:45:19;;;;;;;1999.90;999.90;;;;;;;;;;6185287;23;20397;-82
2024/02/22 00:47:46;;;;;;;1999.90;999.90;;;;;;;;;;6184355;23;20017;-84
2024/02/22 00:50:12;;;;;;;1999.90;999.90;;;;;;;;;;6185098;23;20080;-83
2024/02/22 00:52:39;;;;;;;1999.90;999.90;;;;;;;;;;6184880;23;20017;-85
2024/02/22 00:55:08;;;;;;;1999.90;999.90;;;;;;;;;;6184262;23;20108;-83
2024/02/22 00:57:35;;;;;;;1999.90;999.90;;;;;;;;;;6184486;23;20336;-83
2024/02/22 01:00:01;;;;;;;1999.90;999.90;;;;;;;;;;6184365;23;20096;-83
2024/02/22 01:02:28;;;;;;;1999.90;999.90;;;;;;;;;;6185101;23;20025;-83
2024/02/22 01:04:54;;;;;;;1999.90;999.90;;;;;;;;;;6184316;23;20053;-82
2024/02/22 01:07:22;;;;;;;1999.90;999.90;;;;;;;;;;6184397;23;20032;-84
2024/02/22 01:09:49;;;;;;;1999.90;999.90;;;;;;;;;;6183907;23;20352;-81
2024/02/22 01:12:17;;;;;;;1999.90;999.90;;;;;;;;;;6184357;23;20027;-82
2024/02/22 01:14:43;;;;;;;1999.90;999.90;;;;;;;;;;6184354;23;20021;-82
2024/02/22 01:17:10;;;;;;;1999.90;999.90;;;;;;;;;;6184382;23;20028;-82
2024/02/22 01:19:36;;;;;;;1999.90;999.90;;;;;;;;;;6184416;23;20031;-84
2024/02/22 01:22:04;;;;;;;1999.90;999.90;;;;;;;;;;6184802;23;20023;-82
2024/02/22 01:24:30;;;;;;;1999.90;999.90;;;;;;;;;;6184842;23;20052;-82
2024/02/22 01:26:57;;;;;;;1999.90;999.90;;;;;;;;;;6184782;23;20021;-82
2024/02/22 01:29:26;;;;;;;1999.90;999.90;;;;;;;;;;6184515;23;20440;-85
2024/02/22 01:31:52;;;;;;;1999.90;999.90;;;;;;;;;;6184071;23;20391;-82
2024/02/22 01:34:19;;;;;;;1999.90;999.90;;;;;;;;;;6184806;23;20021;-82
2024/02/22 01:36:45;;;;;;;1999.90;999.90;;;;;;;;;;6184095;23;20027;-82
2024/02/22 01:39:12;;;;;;;1999.90;999.90;;;;;;;;;;6183873;23;20025;-82
2024/02/22 01:41:38;;;;;;;1999.90;999.90;;;;;;;;;;6184156;23;20125;-83
2024/02/22 01:44:05;;;;;;;1999.90;999.90;;;;;;;;;;6184483;23;20017;-82
2024/02/22 01:46:33;;;;;;;1999.90;999.90;;;;;;;;;;6186261;23;20355;-83
2024/02/22 01:49:00;;;;;;;1999.90;999.90;;;;;;;;;;6189088;23;20027;-82
2024/02/22 01:51:27;;;;;;;1999.90;999.90;;;;;;;;;;6189051;23;20025;-82
2024/02/22 01:53:54;;;;;;;1999.90;999.90;;;;;;;;;;6184067;23;20025;-85
2024/02/22 01:56:21;;;;;;;1999.90;999.90;;;;;;;;;;6183907;23;20111;-81
2024/02/22 01:58:48;;;;;;;1999.90;999.90;;;;;;;;;;6183472;23;20021;-82
2024/02/22 02:01:16;;;;;;;1999.90;999.90;;;;;;;;;;6183982;23;20021;-83
2024/02/22 02:03:44;;;;;;;1999.90;999.90;;;;;;;;;;6183971;23;20096;-81
2024/02/22 02:06:11;;;;;;;1999.90;999.90;;;;;;;;;;6184243;23;20049;-82
2024/02/22 02:08:38;;;;;;;1999.90;999.90;;;;;;;;;;6183500;23;20076;-82
2024/02/22 02:11:05;;;;;;;1999.90;999.90;;;;;;;;;;6183922;23;20027;-82
2024/02/22 02:13:32;;;;;;;1999.90;999.90;;;;;;;;;;6183806;23;20021;-82
2024/02/22 02:15:59;;;;;;;1999.90;999.90;;;;;;;;;;6183789;23;20023;-83
2024/02/22 02:18:27;;;;;;;1999.90;999.90;;;;;;;;;;6183101;23;20075;-82
2024/02/22 02:20:58;;;;;;;1999.90;999.90;;;;;;;;;;6183594;23;20039;-82
2024/02/22 02:23:29;;;;;;;1999.90;999.90;;;;;;;;;;6183068;23;20059;-82
2024/02/22 02:25:57;;;;;;;1999.90;999.90;;;;;;;;;;6183784;23;20043;-82
2024/02/22 02:28:24;;;;;;;1999.90;999.90;;;;;;;;;;6183626;23;20100;-82
2024/02/22 02:30:50;;;;;;;1999.90;999.90;;;;;;;;;;6183470;23;20035;-83
2024/02/22 02:33:17;;;;;;;1999.90;999.90;;;;;;;;;;6183628;23;20077;-82
2024/02/22 02:35:43;;;;;;;1999.90;999.90;;;;;;;;;;6182851;23;20475;-83
2024/02/22 02:38:10;;;;;;;1999.90;999.90;;;;;;;;;;6183644;23;20091;-82
2024/02/22 02:40:37;;;;;;;1999.90;999.90;;;;;;;;;;6183609;23;20047;-82
2024/02/22 02:43:06;;;;;;;1999.90;999.90;;;;;;;;;;6183985;23;20705;-82
2024/02/22 02:45:33;;;;;;;1999.90;999.90;;;;;;;;;;6183483;23;20060;-83
2024/02/22 02:47:59;;;;;;;1999.90;999.90;;;;;;;;;;6183237;23;20470;-83
2024/02/22 02:50:26;;;;;;;1999.90;999.90;;;;;;;;;;6183511;23;20031;-83
2024/02/22 02:52:53;;;;;;;1999.90;999.90;;;;;;;;;;6183769;23;20100;-82
2024/02/22 02:55:20;;;;;;;1999.90;999.90;;;;;;;;;;6183340;23;20329;-82
2024/02/22 02:57:46;;;;;;;1999.90;999.90;;;;;;;;;;6183403;23;20456;-82
2024/02/22 03:00:15;;;;;;;1999.90;999.90;;;;;;;;;;6183287;23;20179;-82
2024/02/22 03:02:42;;;;;;;1999.90;999.90;;;;;;;;;;6182773;23;20024;-82
2024/02/22 03:05:08;;;;;;;1999.90;999.90;;;;;;;;;;6183013;23;20048;-82
2024/02/22 03:07:34;;;;;;;1999.90;999.90;;;;;;;;;;6183554;23;20028;-82
2024/02/22 03:10:01;;;;;;;1999.90;999.90;;;;;;;;;;6183803;23;20021;-83
2024/02/22 03:12:27;;;;;;;1999.90;999.90;;;;;;;;;;6183575;23;20021;-82
2024/02/22 03:14:54;;;;;;;1999.90;999.90;;;;;;;;;;6183645;23;20024;-82
2024/02/22 03:17:23;;;;;;;1999.90;999.90;;;;;;;;;;6183307;23;20023;-84
2024/02/22 03:19:52;;;;;;;1999.90;999.90;;;;;;;;;;6183410;23;20021;-82
2024/02/22 03:22:19;;;;;;;1999.90;999.90;;;;;;;;;;6183391;23;20022;-83
2024/02/22 03:24:45;;;;;;;1999.90;999.90;;;;;;;;;;6182823;23;20025;-81
2024/02/22 03:27:11;;;;;;;1999.90;999.90;;;;;;;;;;6183874;23;20031;-83
2024/02/22 03:29:39;;;;;;;1999.90;999.90;;;;;;;;;;6184668;23;20029;-83
2024/02/22 03:32:06;;;;;;;1999.90;999.90;;;;;;;;;;6185752;23;20028;-81
2024/02/22 03:34:34;;;;;;;1999.90;999.90;;;;;;;;;;6185709;23;20021;-84
2024/02/22 03:37:02;;;;;;;1999.90;999.90;;;;;;;;;;6185884;23;20021;-83
2024/02/22 03:39:29;;;;;;;1999.90;999.90;;;;;;;;;;6185142;23;20475;-86
2024/02/22 03:41:55;;;;;;;1999.90;999.90;;;;;;;;;;6185292;23;20017;-83
2024/02/22 03:44:22;;;;;;;1999.90;999.90;;;;;;;;;;6185868;23;20027;-84
2024/02/22 03:46:48;;;;;;;1999.90;999.90;;;;;;;;;;6185505;23;20032;-84
2024/02/22 03:49:15;;;;;;;1999.90;999.90;;;;;;;;;;6185191;23;20112;-83
2024/02/22 03:51:43;;;;;;;1999.90;999.90;;;;;;;;;;6185860;23;20025;-85
2024/02/22 03:54:09;;;;;;;1999.90;999.90;;;;;;;;;;6185255;23;20023;-82
2024/02/22 03:56:37;;;;;;;1999.90;999.90;;;;;;;;;;6184912;23;20399;-84
2024/02/22 03:59:03;;;;;;;1999.90;999.90;;;;;;;;;;6185096;23;20027;-83
2024/02/22 04:01:30;;;;;;;1999.90;999.90;;;;;;;;;;6185295;23;20325;-83
2024/02/22 04:03:57;;;;;;;1999.90;999.90;;;;;;;;;;6184859;23;20461;-83
2024/02/22 04:06:24;;;;;;;1999.90;999.90;;;;;;;;;;6185360;23;20043;-85
2024/02/22 04:08:52;;;;;;;1999.90;999.90;;;;;;;;;;6185460;23;20633;-83
2024/02/22 04:11:18;;;;;;;1999.90;999.90;;;;;;;;;;6184830;23;20083;-84
2024/02/22 04:13:45;;;;;;;1999.90;999.90;;;;;;;;;;6184698;23;20052;-84
2024/02/22 04:16:12;;;;;;;1999.90;999.90;;;;;;;;;;6185070;23;20025;-83
2024/02/22 04:18:38;;;;;;;1999.90;999.90;;;;;;;;;;6184770;23;20352;-82
2024/02/22 04:21:05;;;;;;;1999.90;999.90;;;;;;;;;;6184481;23;20059;-84
2024/02/22 04:23:31;;;;;;;1999.90;999.90;;;;;;;;;;6185610;23;20047;-83
2024/02/22 04:25:59;;;;;;;1999.90;999.90;;;;;;;;;;6184918;23;20017;-82
2024/02/22 04:28:26;;;;;;;1999.90;999.90;;;;;;;;;;6184839;23;20017;-84
2024/02/22 04:30:52;;;;;;;1999.90;999.90;;;;;;;;;;6184838;23;20025;-83
2024/02/22 04:33:20;;;;;;;1999.90;999.90;;;;;;;;;;6185708;23;20337;-85
2024/02/22 04:35:47;;;;;;;1999.90;999.90;;;;;;;;;;6184958;23;20025;-83
2024/02/22 04:38:13;;;;;;;1999.90;999.90;;;;;;;;;;6184947;23;20032;-83
2024/02/22 04:40:41;;;;;;;1999.90;999.90;;;;;;;;;;6185193;23;20037;-83
2024/02/22 04:43:09;;;;;;;1999.90;999.90;;;;;;;;;;6185414;23;20075;-83
2024/02/22 04:45:35;;;;;;;1999.90;999.90;;;;;;;;;;6184578;23;20452;-83
2024/02/22 04:48:03;;;;;;;1999.90;999.90;;;;;;;;;;6184603;23;20031;-83
2024/02/22 04:50:30;;;;;;;1999.90;999.90;;;;;;;;;;6184280;23;20021;-86
2024/02/22 04:53:09;;;;;;;1999.90;999.90;;;;;;;;;;6185372;23;20017;-83
2024/02/22 04:55:35;;;;;;;1999.90;999.90;;;;;;;;;;6185452;23;20028;-84
2024/02/22 04:58:04;;;;;;;1999.90;999.90;;;;;;;;;;6184797;23;20021;-84
2024/02/22 05:00:34;;;;;;;1999.90;999.90;;;;;;;;;;6185266;23;20031;-84
2024/02/22 05:03:01;;;;;;;1999.90;999.90;;;;;;;;;;6186092;23;20044;-84
2024/02/22 05:05:28;;;;;;;1999.90;999.90;;;;;;;;;;6185317;23;20137;-84
2024/02/22 05:07:55;;;;;;;1999.90;999.90;;;;;;;;;;6186416;23;20068;-84
2024/02/22 05:10:22;;;;;;;1999.90;999.90;;;;;;;;;;6186181;23;20080;-86
2024/02/22 05:12:48;;;;;;;1999.90;999.90;;;;;;;;;;6186998;23;20093;-84
2024/02/22 05:15:15;;;;;;;1999.90;999.90;;;;;;;;;;6186463;23;20083;-85
2024/02/22 05:17:43;;;;;;;1999.90;999.90;;;;;;;;;;6188957;23;20046;-85
2024/02/22 05:20:09;;;;;;;1999.90;999.90;;;;;;;;;;6189023;23;20456;-84
2024/02/22 05:22:36;;;;;;;1999.90;999.90;;;;;;;;;;6186115;23;20027;-83
2024/02/22 05:25:03;;;;;;;1999.90;999.90;;;;;;;;;;6185651;23;20103;-83
2024/02/22 05:27:30;;;;;;;1999.90;999.90;;;;;;;;;;6194148;23;20016;-88
2024/02/22 05:29:56;;;;;;;1999.90;999.90;;;;;;;;;;6210312;23;20053;-88
2024/02/22 05:32:24;;;;;;;1999.90;999.90;;;;;;;;;;6205323;23;20059;-84
2024/02/22 05:34:52;;;;;;;1999.90;999.90;;;;;;;;;;6184310;23;20021;-82
2024/02/22 05:37:18;;;;;;;1999.90;999.90;;;;;;;;;;6184213;23;20052;-84
2024/02/22 05:39:45;;;;;;;1999.90;999.90;;;;;;;;;;6183572;23;20023;-83
2024/02/22 05:42:11;;;;;;;1999.90;999.90;;;;;;;;;;6183960;23;20032;-83
2024/02/22 05:44:38;;;;;;;1999.90;999.90;;;;;;;;;;6183959;23;20028;-83
2024/02/22 05:47:05;;;;;;;1999.90;999.90;;;;;;;;;;6184318;23;20017;-83
2024/02/22 05:49:32;;;;;;;1999.90;999.90;;;;;;;;;;6183954;23;20025;-81
2024/02/22 05:52:00;;;;;;;1999.90;999.90;;;;;;;;;;6183622;23;20025;-84
2024/02/22 05:54:26;;;;;;;1999.90;999.90;;;;;;;;;;6183571;23;20108;-82
2024/02/22 05:56:53;;;;;;;1999.90;999.90;;;;;;;;;;6183928;23;20361;-83
2024/02/22 05:59:19;;;;;;;1999.90;999.90;;;;;;;;;;6183421;23;20021;-83
2024/02/22 06:01:46;;;;;;;1999.90;999.90;;;;;;;;;;6183224;23;20021;-83
2024/02/22 06:04:12;;;;;;;1999.90;999.90;;;;;;;;;;6183382;23;20452;-82
2024/02/22 06:06:39;;;;;;;1999.90;999.90;;;;;;;;;;6183626;23;20344;-82
2024/02/22 06:09:08;;;;;;;1999.90;999.90;;;;;;;;;;6183611;23;20017;-82
2024/02/22 06:11:34;;;;;;;1999.90;999.90;;;;;;;;;;6183359;23;20025;-83
2024/02/22 06:14:01;;;;;;;1999.90;999.90;;;;;;;;;;6183540;23;20024;-83
2024/02/22 06:16:27;;;;;;;1999.90;999.90;;;;;;;;;;6182783;23;20453;-83
2024/02/22 06:18:54;;;;;;;1999.90;999.90;;;;;;;;;;6183244;23;20021;-83
2024/02/22 06:21:21;;;;;;;1999.90;999.90;;;;;;;;;;6184426;23;20028;-81
2024/02/22 06:23:47;;;;;;;1999.90;999.90;;;;;;;;;;6185522;23;20467;-81
2024/02/22 06:26:15;;;;;;;1999.90;999.90;;;;;;;;;;6183622;23;20025;-82
2024/02/22 06:28:42;;;;;;;1999.90;999.90;;;;;;;;;;6183468;23;20356;-83
2024/02/22 06:31:08;;;;;;;1999.90;999.90;;;;;;;;;;6182831;23;20116;-84
2024/02/22 06:33:35;;;;;;;1999.90;999.90;;;;;;;;;;6183073;23;20024;-82
2024/02/22 06:36:01;;;;;;;1999.90;999.90;;;;;;;;;;6183174;23;20021;-81
2024/02/22 06:38:28;;;;;;;1999.90;999.90;;;;;;;;;;6183688;23;20021;-82
2024/02/22 06:40:54;;;;;;;1999.90;999.90;;;;;;;;;;6183325;23;20108;-85
2024/02/22 06:43:22;;;;;;;1999.90;999.90;;;;;;;;;;6184348;23;20017;-81
2024/02/22 06:45:50;;;;;;;1999.90;999.90;;;;;;;;;;6183649;23;20027;-83
2024/02/22 06:48:16;;;;;;;1999.90;999.90;;;;;;;;;;6182663;23;20027;-83
2024/02/22 06:50:43;;;;;;;1999.90;999.90;;;;;;;;;;6183136;23;20024;-82
2024/02/22 06:53:09;;;;;;;1999.90;999.90;;;;;;;;;;6183130;23;20017;-85
2024/02/22 06:55:36;;;;;;;1999.90;999.90;;;;;;;;;;6182883;23;20359;-82
2024/02/22 06:58:03;;;;;;;1999.90;999.90;;;;;;;;;;6182603;23;20017;-81
2024/02/22 07:00:32;;;;;;;1999.90;999.90;;;;;;;;;;6182594;23;20076;-82
2024/02/22 07:02:59;;;;;;;1999.90;999.90;;;;;;;;;;6182823;23;20017;-82
2024/02/22 07:05:25;;;;;;;1999.90;999.90;;;;;;;;;;6183423;23;20017;-82
2024/02/22 07:07:52;;;;;;;1999.90;999.90;;;;;;;;;;6183551;23;20025;-84
2024/02/22 07:10:21;;;;;;;1999.90;999.90;;;;;;;;;;6183268;23;20049;-82
2024/02/22 07:12:48;;;;;;;1999.90;999.90;;;;;;;;;;6182920;23;20072;-84
2024/02/22 07:15:16;;;;;;;1999.90;999.90;;;;;;;;;;6182841;23;20470;-83
2024/02/22 07:17:44;;;;;;;1999.90;999.90;;;;;;;;;;6182849;23;20025;-82
2024/02/22 07:20:13;;;;;;;1999.90;999.90;;;;;;;;;;6182721;23;20458;-81
2024/02/22 07:22:41;;;;;;;1999.90;999.90;;;;;;;;;;6183049;23;20021;-84
2024/02/22 07:25:11;;;;;;;1999.90;999.90;;;;;;;;;;6182660;23;20017;-82
2024/02/22 07:27:39;;;;;;;1999.90;999.90;;;;;;;;;;6182988;23;20043;-81
2024/02/22 07:30:07;;;;;;;1999.90;999.90;;;;;;;;;;6182457;23;20025;-83
2024/02/22 07:32:34;;;;;;;1999.90;999.90;;;;;;;;;;6183031;23;20091;-82
2024/02/22 07:35:02;;;;;;;1999.90;999.90;;;;;;;;;;6182754;23;20081;-82
2024/02/22 07:37:29;;;;;;;1999.90;999.90;;;;;;;;;;6183005;23;20028;-82
2024/02/22 07:39:55;;;;;;;1999.90;999.90;;;;;;;;;;6182543;23;20023;-81
2024/02/22 07:42:22;;;;;;;1999.90;999.90;;;;;;;;;;6182463;23;20024;-83
2024/02/22 07:44:49;;;;;;;1999.90;999.90;;;;;;;;;;6182848;23;20021;-82
2024/02/22 07:47:15;;;;;;;1999.90;999.90;;;;;;;;;;6182689;23;20021;-83
2024/02/22 07:49:42;;;;;;;1999.90;999.90;;;;;;;;;;6182911;23;20017;-82
2024/02/22 07:52:10;;;;;;;1999.90;999.90;;;;;;;;;;6182652;23;20025;-81
2024/02/22 07:54:38;;;;;;;1999.90;999.90;;;;;;;;;;6181793;23;20478;-83
2024/02/22 07:57:06;;;;;;;1999.90;999.90;;;;;;;;;;6183191;23;20096;-86
2024/02/22 07:59:32;;;;;;;1999.90;999.90;;;;;;;;;;6182182;23;20040;-82
2024/02/22 08:01:59;;;;;;;1999.90;999.90;;;;;;;;;;6182096;23;20021;-83
2024/02/22 08:04:26;;;;;;;1999.90;999.90;;;;;;;;;;6183211;23;20017;-81
2024/02/22 08:06:53;;;;;;;1999.90;999.90;;;;;;;;;;6182776;23;20056;-81
2024/02/22 08:09:22;;;;;;;1999.90;999.90;;;;;;;;;;6182414;23;20466;-82
2024/02/22 08:11:48;;;;;;;1999.90;999.90;;;;;;;;;;6182557;23;20091;-82
2024/02/22 08:14:15;;;;;;;1999.90;999.90;;;;;;;;;;6183944;23;20347;-81
2024/02/22 08:16:42;;;;;;;1999.90;999.90;;;;;;;;;;6184549;23;20053;-82
2024/02/22 08:19:08;;;;;;;1999.90;999.90;;;;;;;;;;6184689;23;20063;-84
2024/02/22 08:21:35;;;;;;;1999.90;999.90;;;;;;;;;;6183714;23;20344;-82
2024/02/22 08:24:01;;;;;;;1999.90;999.90;;;;;;;;;;6183982;23;20104;-82
2024/02/22 08:26:29;;;;;;;1999.90;999.90;;;;;;;;;;6184213;23;20053;-85
2024/02/22 08:28:55;;;;;;;1999.90;999.90;;;;;;;;;;6184742;23;20023;-82
2024/02/22 08:31:24;;;;;;;1999.90;999.90;;;;;;;;;;6183520;23;20049;-81
2024/02/22 08:33:50;;;;;;;1999.90;999.90;;;;;;;;;;6183192;23;20025;-81
2024/02/22 08:36:17;;;;;;;1999.90;999.90;;;;;;;;;;6184062;23;20021;-82
2024/02/22 08:38:43;;;;;;;1999.90;999.90;;;;;;;;;;6183464;23;20440;-82
2024/02/22 08:41:10;;;;;;;1999.90;999.90;;;;;;;;;;6183588;23;20031;-84
2024/02/22 08:43:38;;;;;;;1999.90;999.90;;;;;;;;;;6184893;23;20040;-83
2024/02/22 08:46:04;;;;;;;1999.90;999.90;;;;;;;;;;6184490;23;20335;-81
2024/02/22 08:48:32;;;;;;;1999.90;999.90;;;;;;;;;;6183302;23;20025;-83
2024/02/22 08:50:59;;;;;;;1999.90;999.90;;;;;;;;;;6184595;23;20025;-82
2024/02/22 08:53:25;;;;;;;1999.90;999.90;;;;;;;;;;6184079;23;20099;-81
2024/02/22 08:55:52;;;;;;;1999.90;999.90;;;;;;;;;;6183423;23;20104;-82
2024/02/22 08:58:18;;;;;;;1999.90;999.90;;;;;;;;;;6183520;23;20017;-83
2024/02/22 09:00:47;;;;;;;1999.90;999.90;;;;;;;;;;6184521;23;20021;-84
2024/02/22 09:03:14;;;;;;;1999.90;999.90;;;;;;;;;;6191996;23;20005;-85
2024/02/22 09:05:43;;;;;;;1999.90;999.90;;;;;;;;;;6198739;23;20029;-82
2024/02/22 09:08:10;;;;;;;1999.90;999.90;;;;;;;;;;6186619;23;20021;-83
2024/02/22 09:10:36;;;;;;;1999.90;999.90;;;;;;;;;;6182965;23;20027;-83
2024/02/22 09:13:03;;;;;;;1999.90;999.90;;;;;;;;;;6184010;23;20024;-82
2024/02/22 09:15:29;;;;;;;1999.90;999.90;;;;;;;;;;6183858;23;20027;-83
2024/02/22 09:17:57;;;;;;;1999.90;999.90;;;;;;;;;;6184514;23;20031;-81
2024/02/22 09:20:24;;;;;;;1999.90;999.90;;;;;;;;;;6184414;23;20021;-81
2024/02/22 09:22:56;;;;;;;1999.90;999.90;;;;;;;;;;6183612;23;20024;-82
2024/02/22 09:25:23;;;;;;;1999.90;999.90;;;;;;;;;;6183278;23;20079;-81
2024/02/22 09:27:50;;;;;;;1999.90;999.90;;;;;;;;;;6183349;23;20017;-83
2024/02/22 09:30:16;;;;;;;1999.90;999.90;;;;;;;;;;6183662;23;20464;-81
2024/02/22 09:32:43;;;;;;;1999.90;999.90;;;;;;;;;;6184030;23;20099;-82
2024/02/22 09:35:11;;;;;;;1999.90;999.90;;;;;;;;;;6183572;23;20112;-83
2024/02/22 09:37:38;;;;;;;1999.90;999.90;;;;;;;;;;6183292;23;20027;-81
2024/02/22 09:40:05;;;;;;;1999.90;999.90;;;;;;;;;;6183537;23;20017;-82
2024/02/22 09:42:32;;;;;;;1999.90;999.90;;;;;;;;;;6183492;23;20100;-82
2024/02/22 09:44:59;;;;;;;1999.90;999.90;;;;;;;;;;6183863;23;20017;-82
2024/02/22 09:47:26;;;;;;;1999.90;999.90;;;;;;;;;;6183243;23;20024;-83
2024/02/22 09:49:52;;;;;;;1999.90;999.90;;;;;;;;;;6182839;23;20021;-82
2024/02/22 09:52:21;;;;;;;1999.90;999.90;;;;;;;;;;6183349;23;20021;-81
2024/02/22 09:54:51;;;;;;;1999.90;999.90;;;;;;;;;;6183308;23;20021;-81
2024/02/22 09:57:18;;;;;;;1999.90;999.90;;;;;;;;;;6184299;23;20017;-83
2024/02/22 09:59:48;;;;;;;1999.90;999.90;;;;;;;;;;6183466;23;20076;-81
2024/02/22 10:02:15;;;;;;;1999.90;999.90;;;;;;;;;;6182840;23;20108;-82
2024/02/22 10:04:51;;;;;;;1999.90;999.90;;;;;;;;;;6181903;23;20021;-82
2024/02/22 10:07:25;;;;;;;1999.90;999.90;;;;;;;;;;6181785;23;20028;-81
2024/02/22 10:09:52;;;;;;;1999.90;999.90;;;;;;;;;;6181474;23;20021;-83
2024/02/22 10:12:26;;;;;;;1999.90;999.90;;;;;;;;;;6183119;23;20031;-83
2024/02/22 10:14:52;;;;;;;1999.90;999.90;;;;;;;;;;6183248;23;20017;-82
2024/02/22 10:17:24;;;;;;;1999.90;999.90;;;;;;;;;;6182551;23;20028;-81
2024/02/22 10:19:57;;;;;;;1999.90;999.90;;;;;;;;;;6183710;23;20096;-82
2024/02/22 10:22:26;;;;;;;1999.90;999.90;;;;;;;;;;6182843;23;20543;-82
2024/02/22 10:25:07;;;;;;;1999.90;999.90;;;;;;;;;;6182533;23;20100;-82
2024/02/22 10:27:34;;;;;;;1999.90;999.90;;;;;;;;;;6182982;23;20322;-83
2024/02/22 10:30:01;;;;;;;1999.90;999.90;;;;;;;;;;6182955;23;20021;-81
2024/02/22 10:32:27;;;;;;;1999.90;999.90;;;;;;;;;;6183435;23;20021;-82
2024/02/22 10:34:55;;;;;;;1999.90;999.90;;;;;;;;;;6182541;23;20325;-81
2024/02/22 10:37:22;;;;;;;1999.90;999.90;;;;;;;;;;6181898;23;20031;-83
2024/02/22 10:39:50;;;;;;;1999.90;999.90;;;;;;;;;;6182003;23;20021;-83
2024/02/22 10:42:16;;;;;;;1999.90;999.90;;;;;;;;;;6182535;23;20075;-83
2024/02/22 10:44:44;;;;;;;1999.90;999.90;;;;;;;;;;6182966;23;20021;-82
2024/02/22 10:47:11;;;;;;;1999.90;999.90;;;;;;;;;;6182496;23;20021;-82
2024/02/22 10:49:39;;;;;;;1999.90;999.90;;;;;;;;;;6182532;23;20017;-84
2024/02/22 10:52:06;;;;;;;1999.90;999.90;;;;;;;;;;6182754;23;20021;-83
2024/02/22 10:54:40;;;;;;;1999.90;999.90;;;;;;;;;;6181847;23;20021;-82
2024/02/22 10:57:08;;;;;;;1999.90;999.90;;;;;;;;;;6181608;23;20025;-82
2024/02/22 10:59:36;;;;;;;1999.90;999.90;;;;;;;;;;6181950;23;20056;-83
2024/02/22 11:02:04;;;;;;;1999.90;999.90;;;;;;;;;;6181170;23;20470;-82
2024/02/22 11:04:32;;;;;;;1999.90;999.90;;;;;;;;;;6182472;23;19916;-82
2024/02/22 11:07:04;;;;;;;1999.90;999.90;;;;;;;;;;6183060;23;20518;-84
2024/02/22 11:09:38;;;;;;;1999.90;999.90;;;;;;;;;;6182089;23;20052;-83
2024/02/22 11:12:07;;;;;;;1999.90;999.90;;;;;;;;;;6182353;23;20023;-82
2024/02/22 11:14:36;;;;;;;1999.90;999.90;;;;;;;;;;6182580;23;20048;-84
2024/02/22 11:17:05;;;;;;;1999.90;999.90;;;;;;;;;;6182080;23;20024;-83
2024/02/22 11:19:32;;;;;;;1999.90;999.90;;;;;;;;;;6182552;23;20076;-84
2024/02/22 11:21:59;;;;;;;1999.90;999.90;;;;;;;;;;6182149;23;20095;-85
2024/02/22 11:24:29;;;;;;;1999.90;999.90;;;;;;;;;;6182161;23;20025;-81
2024/02/22 11:26:57;;;;;;;1999.90;999.90;;;;;;;;;;6182801;23;20025;-82
2024/02/22 11:29:29;;;;;;;1999.90;999.90;;;;;;;;;;6182899;23;20028;-83
2024/02/22 11:31:58;;;;;;;1999.90;999.90;;;;;;;;;;6182633;23;20396;-82
2024/02/22 11:34:25;;;;;;;1999.90;999.90;;;;;;;;;;6183488;23;20104;-83
2024/02/22 11:36:52;;;;;;;1999.90;999.90;;;;;;;;;;6183332;23;20021;-83
2024/02/22 11:39:19;;;;;;;1999.90;999.90;;;;;;;;;;6182689;23;20031;-85
2024/02/22 11:41:48;;;;;;;1999.90;999.90;;;;;;;;;;6182567;23;20351;-82
2024/02/22 11:44:16;;;;;;;1999.90;999.90;;;;;;;;;;6183135;23;20028;-83
2024/02/22 11:46:45;;;;;;;1999.90;999.90;;;;;;;;;;6183399;23;20048;-83
2024/02/22 11:49:11;;;;;;;1999.90;999.90;;;;;;;;;;6187083;23;20327;-83
2024/02/22 11:51:39;;;;;;;1999.90;999.90;;;;;;;;;;6184038;23;20452;-83
2024/02/22 11:54:06;;;;;;;1999.90;999.90;;;;;;;;;;6184608;23;20024;-83
2024/02/22 11:56:33;;;;;;;1999.90;999.90;;;;;;;;;;6185088;23;20059;-83
2024/02/22 11:59:00;;;;;;;1999.90;999.90;;;;;;;;;;6185009;23;20021;-83
2024/02/22 12:01:27;;;;;;;1999.90;999.90;;;;;;;;;;6184853;23;20024;-83
2024/02/22 12:03:56;;;;;;;1999.90;999.90;;;;;;;;;;6184510;23;20021;-81
2024/02/22 12:06:23;;;;;;;1999.90;999.90;;;;;;;;;;6185019;23;20023;-83
2024/02/22 12:08:50;;;;;;;1999.90;999.90;;;;;;;;;;6184337;23;20025;-83
2024/02/22 12:11:19;;;;;;;1999.90;999.90;;;;;;;;;;6184643;23;20032;-84
2024/02/22 12:13:54;;;;;;;1999.90;999.90;;;;;;;;;;6185141;23;20087;-84
2024/02/22 12:16:21;;;;;;;1999.90;999.90;;;;;;;;;;6184746;23;20065;-83
2024/02/22 12:18:48;;;;;;;1999.90;999.90;;;;;;;;;;6185214;23;20053;-83
2024/02/22 12:21:16;;;;;;;1999.90;999.90;;;;;;;;;;6185154;23;20021;-84
2024/02/22 12:23:43;;;;;;;1999.90;999.90;;;;;;;;;;6185107;23;20100;-83
2024/02/22 12:26:09;;;;;;;1999.90;999.90;;;;;;;;;;6184908;23;20101;-82
2024/02/22 12:28:36;;;;;;;1999.90;999.90;;;;;;;;;;6183712;23;20035;-85
2024/02/22 12:31:03;;;;;;;1999.90;999.90;;;;;;;;;;6185349;23;20017;-82
2024/02/22 12:33:30;;;;;;;1999.90;999.90;;;;;;;;;;6185149;23;20562;-83
2024/02/22 12:35:57;;;;;;;1999.90;999.90;;;;;;;;;;6185466;23;20033;-86
2024/02/22 12:38:25;;;;;;;1999.90;999.90;;;;;;;;;;6191207;23;20025;-84
2024/02/22 12:40:51;;;;;;;1999.90;999.90;;;;;;;;;;6189028;23;20021;-82
2024/02/22 12:43:18;;;;;;;1999.90;999.90;;;;;;;;;;6183943;23;20017;-83
2024/02/22 12:45:45;;;;;;;1999.90;999.90;;;;;;;;;;6184618;23;20044;-82
2024/02/22 12:48:12;;;;;;;1999.90;999.90;;;;;;;;;;6183777;23;20524;-84
2024/02/22 12:50:38;;;;;;;1999.90;999.90;;;;;;;;;;6184000;23;20021;-82
2024/02/22 12:53:08;;;;;;;1999.90;999.90;;;;;;;;;;6184597;23;20021;-81
2024/02/22 12:55:36;;;;;;;1999.90;999.90;;;;;;;;;;6184131;23;20467;-83
2024/02/22 12:58:02;;;;;;;1999.90;999.90;;;;;;;;;;6185080;23;20017;-83
2024/02/22 13:00:29;;;;;;;1999.90;999.90;;;;;;;;;;6184352;23;20021;-83
2024/02/22 13:02:56;;;;;;;1999.90;999.90;;;;;;;;;;6184807;23;20447;-82
2024/02/22 13:05:22;;;;;;;1999.90;999.90;;;;;;;;;;6184216;23;20017;-82
2024/02/22 13:07:49;;;;;;;1999.90;999.90;;;;;;;;;;6183919;23;20024;-85
2024/02/22 13:10:16;;;;;;;1999.90;999.90;;;;;;;;;;6184519;23;20388;-82
2024/02/22 13:12:44;;;;;;;1999.90;999.90;;;;;;;;;;6183532;23;20028;-81
2024/02/22 13:15:10;;;;;;;1999.90;999.90;;;;;;;;;;6183283;23;20025;-83
2024/02/22 13:17:37;;;;;;;1999.90;999.90;;;;;;;;;;6183651;23;20017;-83
2024/02/22 13:20:05;;;;;;;1999.90;999.90;;;;;;;;;;6184370;23;20032;-82
2024/02/22 13:22:31;;;;;;;1999.90;999.90;;;;;;;;;;6184129;23;20017;-82
2024/02/22 13:24:58;;;;;;;1999.90;999.90;;;;;;;;;;6183763;23;20301;-82
2024/02/22 13:27:24;;;;;;;1999.90;999.90;;;;;;;;;;6183857;23;20023;-82
2024/02/22 13:29:52;;;;;;;1999.90;999.90;;;;;;;;;;6183491;23;20100;-83
2024/02/22 13:32:19;;;;;;;1999.90;999.90;;;;;;;;;;6183886;23;20092;-82
2024/02/22 13:34:45;;;;;;;1999.90;999.90;;;;;;;;;;6185939;23;20021;-83
2024/02/22 13:37:12;;;;;;;1999.90;999.90;;;;;;;;;;6187692;23;20095;-83
2024/02/22 13:39:39;;;;;;;1999.90;999.90;;;;;;;;;;6185803;23;20572;-82
2024/02/22 13:42:06;;;;;;;1999.90;999.90;;;;;;;;;;6186471;23;20017;-83